sensor_id;sensor_type;location;lat;lon;timestamp;temperature;humidity
16827;DHT22;8530;49.540;8.576;2022-09-21T00:01:22;9.50;92.50
16827;DHT22;8530;49.540;8.576;2022-09-21T00:03:52;9.50;92.60
16827;DHT22;8530;49.540;8.576;2022-09-21T00:06:21;9.40;92.70
16827;DHT22;8530;49.540;8.576;2022-09-21T00:08:49;9.30;92.80
16827;DHT22;8530;49.540;8.576;2022-09-21T00:11:18;9.30;92.90
16827;DHT22;8530;49.540;8.576;2022-09-21T00:13:46;9.20;93.00
16827;DHT22;8530;49.540;8.576;2022-09-21T00:16:14;9.20;93.10
16827;DHT22;8530;49.540;8.576;2022-09-21T00:18:41;9.10;93.20
16827;DHT22;8530;49.540;8.576;2022-09-21T00:21:09;9.10;93.30
16827;DHT22;8530;49.540;8.576;2022-09-21T00:23:38;9.00;93.40
16827;DHT22;8530;49.540;8.576;2022-09-21T00:26:06;9.00;93.50
16827;DHT22;8530;49.540;8.576;2022-09-21T00:28:33;9.00;93.60
16827;DHT22;8530;49.540;8.576;2022-09-21T00:31:02;8.90;93.60
16827;DHT22;8530;49.540;8.576;2022-09-21T00:33:29;8.90;93.70
16827;DHT22;8530;49.540;8.576;2022-09-21T00:36:01;8.90;93.80
16827;DHT22;8530;49.540;8.576;2022-09-21T00:38:29;8.90;93.90
16827;DHT22;8530;49.540;8.576;2022-09-21T00:40:57;8.80;93.90
16827;DHT22;8530;49.540;8.576;2022-09-21T00:43:24;8.80;94.00
16827;DHT22;8530;49.540;8.576;2022-09-21T00:45:56;8.70;94.00
16827;DHT22;8530;49.540;8.576;2022-09-21T00:48:24;8.80;94.20
16827;DHT22;8530;49.540;8.576;2022-09-21T00:50:53;8.70;94.20
16827;DHT22;8530;49.540;8.576;2022-09-21T00:53:21;8.60;94.20
16827;DHT22;8530;49.540;8.576;2022-09-21T00:55:51;8.60;94.30
16827;DHT22;8530;49.540;8.576;2022-09-21T00:58:24;8.60;94.40
16827;DHT22;8530;49.540;8.576;2022-09-21T01:00:52;8.60;94.50
16827;DHT22;8530;49.540;8.576;2022-09-21T01:03:19;8.60;94.50
16827;DHT22;8530;49.540;8.576;2022-09-21T01:05:46;8.60;94.60
16827;DHT22;8530;49.540;8.576;2022-09-21T01:08:14;8.50;94.70
16827;DHT22;8530;49.540;8.576;2022-09-21T01:10:58;8.50;94.70
16827;DHT22;8530;49.540;8.576;2022-09-21T01:13:36;8.50;94.90
16827;DHT22;8530;49.540;8.576;2022-09-21T01:16:12;8.40;94.90
16827;DHT22;8530;49.540;8.576;2022-09-21T01:18:44;8.40;94.90
16827;DHT22;8530;49.540;8.576;2022-09-21T01:21:22;8.40;95.00
16827;DHT22;8530;49.540;8.576;2022-09-21T01:24:15;8.40;95.10
16827;DHT22;8530;49.540;8.576;2022-09-21T01:27:30;8.30;95.10
16827;DHT22;8530;49.540;8.576;2022-09-21T01:30:03;8.30;95.20
16827;DHT22;8530;49.540;8.576;2022-09-21T01:32:35;8.30;95.10
16827;DHT22;8530;49.540;8.576;2022-09-21T01:35:07;8.20;95.20
16827;DHT22;8530;49.540;8.576;2022-09-21T01:37:37;8.20;95.20
16827;DHT22;8530;49.540;8.576;2022-09-21T01:40:08;8.20;95.30
16827;DHT22;8530;49.540;8.576;2022-09-21T01:42:38;8.20;95.40
16827;DHT22;8530;49.540;8.576;2022-09-21T01:45:10;8.20;95.50
16827;DHT22;8530;49.540;8.576;2022-09-21T01:47:40;8.20;95.50
16827;DHT22;8530;49.540;8.576;2022-09-21T01:50:08;8.20;95.50
16827;DHT22;8530;49.540;8.576;2022-09-21T01:52:40;8.20;95.60
16827;DHT22;8530;49.540;8.576;2022-09-21T01:55:11;8.20;95.70
16827;DHT22;8530;49.540;8.576;2022-09-21T01:57:42;8.20;95.80
16827;DHT22;8530;49.540;8.576;2022-09-21T02:00:13;8.20;95.90
16827;DHT22;8530;49.540;8.576;2022-09-21T02:02:45;8.20;95.90
16827;DHT22;8530;49.540;8.576;2022-09-21T02:05:16;8.10;96.00
16827;DHT22;8530;49.540;8.576;2022-09-21T02:07:44;8.10;96.00
16827;DHT22;8530;49.540;8.576;2022-09-21T02:10:16;8.10;96.00
16827;DHT22;8530;49.540;8.576;2022-09-21T02:12:43;8.10;96.00
16827;DHT22;8530;49.540;8.576;2022-09-21T02:15:12;8.10;96.10
16827;DHT22;8530;49.540;8.576;2022-09-21T02:17:45;8.00;96.00
16827;DHT22;8530;49.540;8.576;2022-09-21T02:20:18;8.00;96.10
16827;DHT22;8530;49.540;8.576;2022-09-21T02:22:56;8.00;96.20
16827;DHT22;8530;49.540;8.576;2022-09-21T02:25:31;7.90;96.20
16827;DHT22;8530;49.540;8.576;2022-09-21T02:28:07;7.90;96.20
16827;DHT22;8530;49.540;8.576;2022-09-21T02:30:40;7.80;96.20
16827;DHT22;8530;49.540;8.576;2022-09-21T02:33:11;7.80;96.30
16827;DHT22;8530;49.540;8.576;2022-09-21T02:35:45;7.80;96.30
16827;DHT22;8530;49.540;8.576;2022-09-21T02:38:18;7.80;96.30
16827;DHT22;8530;49.540;8.576;2022-09-21T02:40:53;7.70;96.30
16827;DHT22;8530;49.540;8.576;2022-09-21T02:43:25;7.70;96.40
16827;DHT22;8530;49.540;8.576;2022-09-21T02:45:58;7.70;96.40
16827;DHT22;8530;49.540;8.576;2022-09-21T02:48:28;7.60;96.40
16827;DHT22;8530;49.540;8.576;2022-09-21T02:50:59;7.60;96.40
16827;DHT22;8530;49.540;8.576;2022-09-21T02:53:30;7.60;96.50
16827;DHT22;8530;49.540;8.576;2022-09-21T02:56:01;7.50;96.50
16827;DHT22;8530;49.540;8.576;2022-09-21T02:58:33;7.50;96.50
16827;DHT22;8530;49.540;8.576;2022-09-21T03:01:05;7.50;96.60
16827;DHT22;8530;49.540;8.576;2022-09-21T03:03:33;7.40;96.60
16827;DHT22;8530;49.540;8.576;2022-09-21T03:06:00;7.40;96.60
16827;DHT22;8530;49.540;8.576;2022-09-21T03:08:27;7.40;96.70
16827;DHT22;8530;49.540;8.576;2022-09-21T03:10:55;7.40;96.70
16827;DHT22;8530;49.540;8.576;2022-09-21T03:13:22;7.40;96.70
16827;DHT22;8530;49.540;8.576;2022-09-21T03:15:49;7.40;96.80
16827;DHT22;8530;49.540;8.576;2022-09-21T03:18:25;7.30;96.80
16827;DHT22;8530;49.540;8.576;2022-09-21T03:20:51;7.30;96.80
16827;DHT22;8530;49.540;8.576;2022-09-21T03:23:18;7.30;96.80
16827;DHT22;8530;49.540;8.576;2022-09-21T03:25:45;7.30;96.80
16827;DHT22;8530;49.540;8.576;2022-09-21T03:28:13;7.30;96.80
16827;DHT22;8530;49.540;8.576;2022-09-21T03:30:41;7.20;96.80
16827;DHT22;8530;49.540;8.576;2022-09-21T03:33:08;7.20;96.90
16827;DHT22;8530;49.540;8.576;2022-09-21T03:35:36;7.20;96.90
16827;DHT22;8530;49.540;8.576;2022-09-21T03:38:03;7.20;97.00
16827;DHT22;8530;49.540;8.576;2022-09-21T03:40:30;7.10;96.90
16827;DHT22;8530;49.540;8.576;2022-09-21T03:42:57;7.10;97.00
16827;DHT22;8530;49.540;8.576;2022-09-21T03:45:23;7.10;97.00
16827;DHT22;8530;49.540;8.576;2022-09-21T03:47:54;7.10;97.00
16827;DHT22;8530;49.540;8.576;2022-09-21T03:50:22;7.00;97.00
16827;DHT22;8530;49.540;8.576;2022-09-21T03:52:51;7.00;97.10
16827;DHT22;8530;49.540;8.576;2022-09-21T03:55:18;7.00;97.10
16827;DHT22;8530;49.540;8.576;2022-09-21T03:57:45;7.00;97.20
16827;DHT22;8530;49.540;8.576;2022-09-21T04:00:12;7.00;97.20
16827;DHT22;8530;49.540;8.576;2022-09-21T04:02:40;7.00;97.20
16827;DHT22;8530;49.540;8.576;2022-09-21T04:05:08;7.00;97.20
16827;DHT22;8530;49.540;8.576;2022-09-21T04:07:35;7.00;97.30
16827;DHT22;8530;49.540;8.576;2022-09-21T04:10:05;7.00;97.30
16827;DHT22;8530;49.540;8.576;2022-09-21T04:12:33;7.00;97.40
16827;DHT22;8530;49.540;8.576;2022-09-21T04:15:01;7.00;97.50
16827;DHT22;8530;49.540;8.576;2022-09-21T04:17:28;7.00;97.40
16827;DHT22;8530;49.540;8.576;2022-09-21T04:19:55;7.00;97.40
16827;DHT22;8530;49.540;8.576;2022-09-21T04:22:22;7.00;97.50
16827;DHT22;8530;49.540;8.576;2022-09-21T04:24:50;7.00;97.50
16827;DHT22;8530;49.540;8.576;2022-09-21T04:27:18;7.00;97.50
16827;DHT22;8530;49.540;8.576;2022-09-21T04:29:44;6.90;97.60
16827;DHT22;8530;49.540;8.576;2022-09-21T04:32:11;6.90;97.60
16827;DHT22;8530;49.540;8.576;2022-09-21T04:34:38;6.90;97.60
16827;DHT22;8530;49.540;8.576;2022-09-21T04:37:05;6.90;97.60
16827;DHT22;8530;49.540;8.576;2022-09-21T04:39:33;6.90;97.70
16827;DHT22;8530;49.540;8.576;2022-09-21T04:41:59;6.90;97.70
16827;DHT22;8530;49.540;8.576;2022-09-21T04:44:27;6.80;97.70
16827;DHT22;8530;49.540;8.576;2022-09-21T04:46:55;6.90;97.80
16827;DHT22;8530;49.540;8.576;2022-09-21T04:49:22;6.90;97.80
16827;DHT22;8530;49.540;8.576;2022-09-21T04:51:49;6.90;97.80
16827;DHT22;8530;49.540;8.576;2022-09-21T04:54:16;6.90;97.80
16827;DHT22;8530;49.540;8.576;2022-09-21T04:56:42;6.80;97.80
16827;DHT22;8530;49.540;8.576;2022-09-21T04:59:09;6.90;97.90
16827;DHT22;8530;49.540;8.576;2022-09-21T05:01:37;6.90;98.00
16827;DHT22;8530;49.540;8.576;2022-09-21T05:04:04;6.90;98.00
16827;DHT22;8530;49.540;8.576;2022-09-21T05:06:32;6.90;98.00
16827;DHT22;8530;49.540;8.576;2022-09-21T05:08:59;6.90;98.00
16827;DHT22;8530;49.540;8.576;2022-09-21T05:11:43;7.00;98.10
16827;DHT22;8530;49.540;8.576;2022-09-21T05:14:11;7.00;98.10
16827;DHT22;8530;49.540;8.576;2022-09-21T05:16:39;6.90;98.00
16827;DHT22;8530;49.540;8.576;2022-09-21T05:19:05;7.00;98.00
16827;DHT22;8530;49.540;8.576;2022-09-21T05:21:32;7.00;98.00
16827;DHT22;8530;49.540;8.576;2022-09-21T05:24:01;7.00;98.00
16827;DHT22;8530;49.540;8.576;2022-09-21T05:26:27;7.00;98.10
16827;DHT22;8530;49.540;8.576;2022-09-21T05:28:54;7.00;98.10
16827;DHT22;8530;49.540;8.576;2022-09-21T05:31:31;7.10;98.10
16827;DHT22;8530;49.540;8.576;2022-09-21T05:34:07;7.00;98.10
16827;DHT22;8530;49.540;8.576;2022-09-21T05:36:44;7.00;98.00
16827;DHT22;8530;49.540;8.576;2022-09-21T05:39:12;7.00;98.00
16827;DHT22;8530;49.540;8.576;2022-09-21T05:41:40;7.00;98.00
16827;DHT22;8530;49.540;8.576;2022-09-21T05:44:10;7.00;98.00
16827;DHT22;8530;49.540;8.576;2022-09-21T05:46:39;7.10;98.10
16827;DHT22;8530;49.540;8.576;2022-09-21T05:49:16;7.20;98.30
16827;DHT22;8530;49.540;8.576;2022-09-21T05:51:51;7.30;98.40
16827;DHT22;8530;49.540;8.576;2022-09-21T05:54:24;7.40;98.40
16827;DHT22;8530;49.540;8.576;2022-09-21T05:56:59;7.40;98.40
16827;DHT22;8530;49.540;8.576;2022-09-21T05:59:40;7.50;98.40
16827;DHT22;8530;49.540;8.576;2022-09-21T06:02:17;7.70;98.40
16827;DHT22;8530;49.540;8.576;2022-09-21T06:04:49;7.80;98.40
16827;DHT22;8530;49.540;8.576;2022-09-21T06:07:18;7.80;98.30
16827;DHT22;8530;49.540;8.576;2022-09-21T06:09:45;8.00;98.40
16827;DHT22;8530;49.540;8.576;2022-09-21T06:12:11;8.00;98.30
16827;DHT22;8530;49.540;8.576;2022-09-21T06:14:38;8.10;98.30
16827;DHT22;8530;49.540;8.576;2022-09-21T06:17:05;8.20;98.30
16827;DHT22;8530;49.540;8.576;2022-09-21T06:19:32;8.30;98.50
16827;DHT22;8530;49.540;8.576;2022-09-21T06:22:00;8.40;98.20
16827;DHT22;8530;49.540;8.576;2022-09-21T06:24:26;8.60;98.20
16827;DHT22;8530;49.540;8.576;2022-09-21T06:26:53;8.80;98.40
16827;DHT22;8530;49.540;8.576;2022-09-21T06:29:20;9.40;99.30
16827;DHT22;8530;49.540;8.576;2022-09-21T06:31:48;11.30;99.90
16827;DHT22;8530;49.540;8.576;2022-09-21T06:34:15;14.00;99.90
16827;DHT22;8530;49.540;8.576;2022-09-21T06:36:41;16.80;99.90
16827;DHT22;8530;49.540;8.576;2022-09-21T06:39:10;19.40;99.90
16827;DHT22;8530;49.540;8.576;2022-09-21T06:41:36;21.40;99.90
16827;DHT22;8530;49.540;8.576;2022-09-21T06:44:03;23.40;98.30
16827;DHT22;8530;49.540;8.576;2022-09-21T06:46:30;25.20;93.70
16827;DHT22;8530;49.540;8.576;2022-09-21T06:48:56;26.70;87.90
16827;DHT22;8530;49.540;8.576;2022-09-21T06:51:23;27.90;78.20
16827;DHT22;8530;49.540;8.576;2022-09-21T06:53:54;29.00;68.20
16827;DHT22;8530;49.540;8.576;2022-09-21T06:56:22;29.70;59.10
16827;DHT22;8530;49.540;8.576;2022-09-21T06:58:49;30.30;54.60
16827;DHT22;8530;49.540;8.576;2022-09-21T07:01:17;29.80;51.80
16827;DHT22;8530;49.540;8.576;2022-09-21T07:03:48;28.50;47.90
16827;DHT22;8530;49.540;8.576;2022-09-21T07:06:16;26.40;47.20
16827;DHT22;8530;49.540;8.576;2022-09-21T07:08:43;24.60;47.40
16827;DHT22;8530;49.540;8.576;2022-09-21T07:11:10;23.40;47.00
16827;DHT22;8530;49.540;8.576;2022-09-21T07:13:39;22.60;46.80
16827;DHT22;8530;49.540;8.576;2022-09-21T07:16:07;21.80;46.00
16827;DHT22;8530;49.540;8.576;2022-09-21T07:18:34;21.00;46.10
16827;DHT22;8530;49.540;8.576;2022-09-21T07:21:04;20.70;47.50
16827;DHT22;8530;49.540;8.576;2022-09-21T07:23:31;21.30;50.50
16827;DHT22;8530;49.540;8.576;2022-09-21T07:26:01;23.20;52.70
16827;DHT22;8530;49.540;8.576;2022-09-21T07:28:28;25.40;52.10
16827;DHT22;8530;49.540;8.576;2022-09-21T07:30:57;27.60;50.70
16827;DHT22;8530;49.540;8.576;2022-09-21T07:33:24;29.70;47.30
16827;DHT22;8530;49.540;8.576;2022-09-21T07:35:52;31.50;44.40
16827;DHT22;8530;49.540;8.576;2022-09-21T07:38:21;33.00;41.10
16827;DHT22;8530;49.540;8.576;2022-09-21T07:40:47;34.10;38.30
16827;DHT22;8530;49.540;8.576;2022-09-21T07:43:14;34.80;35.80
16827;DHT22;8530;49.540;8.576;2022-09-21T07:45:42;35.20;34.10
16827;DHT22;8530;49.540;8.576;2022-09-21T07:48:10;36.10;32.20
16827;DHT22;8530;49.540;8.576;2022-09-21T07:50:37;36.30;29.90
16827;DHT22;8530;49.540;8.576;2022-09-21T07:53:03;36.80;29.40
16827;DHT22;8530;49.540;8.576;2022-09-21T07:55:30;37.70;28.10
16827;DHT22;8530;49.540;8.576;2022-09-21T07:57:57;38.50;26.50
16827;DHT22;8530;49.540;8.576;2022-09-21T08:00:41;39.00;25.70
16827;DHT22;8530;49.540;8.576;2022-09-21T08:03:08;39.50;24.30
16827;DHT22;8530;49.540;8.576;2022-09-21T08:05:36;39.90;23.10
16827;DHT22;8530;49.540;8.576;2022-09-21T08:08:02;40.00;21.80
16827;DHT22;8530;49.540;8.576;2022-09-21T08:10:29;40.20;21.30
16827;DHT22;8530;49.540;8.576;2022-09-21T08:12:57;40.40;20.40
16827;DHT22;8530;49.540;8.576;2022-09-21T08:15:24;40.40;19.80
16827;DHT22;8530;49.540;8.576;2022-09-21T08:17:51;40.30;19.70
16827;DHT22;8530;49.540;8.576;2022-09-21T08:20:18;40.10;18.90
16827;DHT22;8530;49.540;8.576;2022-09-21T08:22:47;39.70;18.50
16827;DHT22;8530;49.540;8.576;2022-09-21T08:25:14;39.40;18.30
16827;DHT22;8530;49.540;8.576;2022-09-21T08:27:41;39.00;18.10
16827;DHT22;8530;49.540;8.576;2022-09-21T08:30:08;38.70;17.80
16827;DHT22;8530;49.540;8.576;2022-09-21T08:32:38;37.90;17.60
16827;DHT22;8530;49.540;8.576;2022-09-21T08:35:05;36.70;17.50
16827;DHT22;8530;49.540;8.576;2022-09-21T08:37:32;35.30;17.50
16827;DHT22;8530;49.540;8.576;2022-09-21T08:40:03;33.40;17.30
16827;DHT22;8530;49.540;8.576;2022-09-21T08:42:37;31.40;17.50
16827;DHT22;8530;49.540;8.576;2022-09-21T08:45:10;29.50;18.20
16827;DHT22;8530;49.540;8.576;2022-09-21T08:47:40;27.80;18.40
16827;DHT22;8530;49.540;8.576;2022-09-21T08:50:22;26.30;18.90
16827;DHT22;8530;49.540;8.576;2022-09-21T08:52:57;24.70;20.00
16827;DHT22;8530;49.540;8.576;2022-09-21T08:55:27;23.40;20.50
16827;DHT22;8530;49.540;8.576;2022-09-21T08:57:54;22.50;21.10
16827;DHT22;8530;49.540;8.576;2022-09-21T09:00:20;21.70;21.80
16827;DHT22;8530;49.540;8.576;2022-09-21T09:03:04;21.10;22.60
16827;DHT22;8530;49.540;8.576;2022-09-21T09:05:43;20.50;23.70
16827;DHT22;8530;49.540;8.576;2022-09-21T09:08:40;19.90;24.00
16827;DHT22;8530;49.540;8.576;2022-09-21T09:11:20;19.50;25.10
16827;DHT22;8530;49.540;8.576;2022-09-21T09:14:08;19.10;25.40
16827;DHT22;8530;49.540;8.576;2022-09-21T09:16:42;18.80;26.30
16827;DHT22;8530;49.540;8.576;2022-09-21T09:19:19;18.50;26.60
16827;DHT22;8530;49.540;8.576;2022-09-21T09:21:47;18.40;27.40
16827;DHT22;8530;49.540;8.576;2022-09-21T09:24:22;18.20;27.80
16827;DHT22;8530;49.540;8.576;2022-09-21T09:26:59;18.10;28.40
16827;DHT22;8530;49.540;8.576;2022-09-21T09:29:30;18.10;29.00
16827;DHT22;8530;49.540;8.576;2022-09-21T09:32:00;18.10;29.40
16827;DHT22;8530;49.540;8.576;2022-09-21T09:34:30;18.10;29.90
16827;DHT22;8530;49.540;8.576;2022-09-21T09:36:59;18.00;30.30
16827;DHT22;8530;49.540;8.576;2022-09-21T09:39:28;18.00;30.60
16827;DHT22;8530;49.540;8.576;2022-09-21T09:42:14;18.00;31.00
16827;DHT22;8530;49.540;8.576;2022-09-21T09:44:55;17.90;31.30
16827;DHT22;8530;49.540;8.576;2022-09-21T09:47:32;18.00;31.70
16827;DHT22;8530;49.540;8.576;2022-09-21T09:50:07;18.00;32.00
16827;DHT22;8530;49.540;8.576;2022-09-21T09:52:35;18.00;32.40
16827;DHT22;8530;49.540;8.576;2022-09-21T09:55:14;18.20;32.70
16827;DHT22;8530;49.540;8.576;2022-09-21T09:57:42;18.20;32.90
16827;DHT22;8530;49.540;8.576;2022-09-21T10:00:13;18.30;33.00
16827;DHT22;8530;49.540;8.576;2022-09-21T10:02:45;18.30;33.40
16827;DHT22;8530;49.540;8.576;2022-09-21T10:05:19;18.30;33.60
16827;DHT22;8530;49.540;8.576;2022-09-21T10:07:47;18.30;33.80
16827;DHT22;8530;49.540;8.576;2022-09-21T10:10:32;18.40;33.90
16827;DHT22;8530;49.540;8.576;2022-09-21T10:13:13;18.40;34.10
16827;DHT22;8530;49.540;8.576;2022-09-21T10:15:46;18.50;34.20
16827;DHT22;8530;49.540;8.576;2022-09-21T10:18:17;18.60;34.20
16827;DHT22;8530;49.540;8.576;2022-09-21T10:20:53;18.70;34.30
16827;DHT22;8530;49.540;8.576;2022-09-21T10:23:22;18.80;34.40
16827;DHT22;8530;49.540;8.576;2022-09-21T10:25:53;18.90;34.40
16827;DHT22;8530;49.540;8.576;2022-09-21T10:28:22;19.00;34.60
16827;DHT22;8530;49.540;8.576;2022-09-21T10:31:08;19.00;34.60
16827;DHT22;8530;49.540;8.576;2022-09-21T10:33:46;18.90;34.80
16827;DHT22;8530;49.540;8.576;2022-09-21T10:36:26;19.00;34.90
16827;DHT22;8530;49.540;8.576;2022-09-21T10:38:54;19.10;35.10
16827;DHT22;8530;49.540;8.576;2022-09-21T10:41:21;19.20;35.10
16827;DHT22;8530;49.540;8.576;2022-09-21T10:43:50;19.30;35.20
16827;DHT22;8530;49.540;8.576;2022-09-21T10:46:32;19.40;35.30
16827;DHT22;8530;49.540;8.576;2022-09-21T10:48:59;19.50;35.30
16827;DHT22;8530;49.540;8.576;2022-09-21T10:51:28;19.50;35.10
16827;DHT22;8530;49.540;8.576;2022-09-21T10:53:56;19.50;35.20
16827;DHT22;8530;49.540;8.576;2022-09-21T10:56:24;19.50;35.10
16827;DHT22;8530;49.540;8.576;2022-09-21T10:59:19;19.60;35.00
16827;DHT22;8530;49.540;8.576;2022-09-21T11:01:48;19.70;34.80
16827;DHT22;8530;49.540;8.576;2022-09-21T11:04:21;19.90;34.80
16827;DHT22;8530;49.540;8.576;2022-09-21T11:06:52;20.00;34.70
16827;DHT22;8530;49.540;8.576;2022-09-21T11:09:25;19.90;34.60
16827;DHT22;8530;49.540;8.576;2022-09-21T11:12:00;19.90;34.80
16827;DHT22;8530;49.540;8.576;2022-09-21T11:14:44;20.10;34.90
16827;DHT22;8530;49.540;8.576;2022-09-21T11:17:18;20.40;35.00
16827;DHT22;8530;49.540;8.576;2022-09-21T11:19:50;20.80;34.90
16827;DHT22;8530;49.540;8.576;2022-09-21T11:22:23;21.00;34.70
16827;DHT22;8530;49.540;8.576;2022-09-21T11:24:53;20.80;34.30
16827;DHT22;8530;49.540;8.576;2022-09-21T11:27:27;20.90;34.30
16827;DHT22;8530;49.540;8.576;2022-09-21T11:30:01;20.90;34.00
16827;DHT22;8530;49.540;8.576;2022-09-21T11:32:43;20.80;33.70
16827;DHT22;8530;49.540;8.576;2022-09-21T11:35:32;20.90;33.80
16827;DHT22;8530;49.540;8.576;2022-09-21T11:38:10;21.00;33.50
16827;DHT22;8530;49.540;8.576;2022-09-21T11:40:58;21.10;34.00
16827;DHT22;8530;49.540;8.576;2022-09-21T11:43:46;21.20;33.20
16827;DHT22;8530;49.540;8.576;2022-09-21T11:46:24;21.30;33.10
16827;DHT22;8530;49.540;8.576;2022-09-21T11:49:17;21.40;33.00
16827;DHT22;8530;49.540;8.576;2022-09-21T11:52:07;21.40;32.70
16827;DHT22;8530;49.540;8.576;2022-09-21T11:54:55;21.30;32.60
16827;DHT22;8530;49.540;8.576;2022-09-21T11:57:26;21.30;32.50
16827;DHT22;8530;49.540;8.576;2022-09-21T12:00:04;21.20;32.50
16827;DHT22;8530;49.540;8.576;2022-09-21T12:05:45;21.30;32.60
16827;DHT22;8530;49.540;8.576;2022-09-21T12:08:32;21.40;32.50
16827;DHT22;8530;49.540;8.576;2022-09-21T12:11:05;21.40;32.40
16827;DHT22;8530;49.540;8.576;2022-09-21T12:13:45;21.30;32.00
16827;DHT22;8530;49.540;8.576;2022-09-21T12:16:20;21.10;32.00
16827;DHT22;8530;49.540;8.576;2022-09-21T12:18:56;21.10;32.20
16827;DHT22;8530;49.540;8.576;2022-09-21T12:21:28;21.00;32.20
16827;DHT22;8530;49.540;8.576;2022-09-21T12:23:58;21.00;32.40
16827;DHT22;8530;49.540;8.576;2022-09-21T12:26:32;20.90;32.30
16827;DHT22;8530;49.540;8.576;2022-09-21T12:29:02;21.10;32.40
16827;DHT22;8530;49.540;8.576;2022-09-21T12:31:36;21.40;32.30
16827;DHT22;8530;49.540;8.576;2022-09-21T12:34:11;21.70;31.90
16827;DHT22;8530;49.540;8.576;2022-09-21T12:36:43;21.80;31.50
16827;DHT22;8530;49.540;8.576;2022-09-21T12:39:14;21.90;31.80
16827;DHT22;8530;49.540;8.576;2022-09-21T12:41:50;21.80;30.80
16827;DHT22;8530;49.540;8.576;2022-09-21T12:44:21;21.80;30.60
16827;DHT22;8530;49.540;8.576;2022-09-21T12:46:56;21.70;30.40
16827;DHT22;8530;49.540;8.576;2022-09-21T12:49:38;21.80;30.30
16827;DHT22;8530;49.540;8.576;2022-09-21T12:52:07;21.80;30.00
16827;DHT22;8530;49.540;8.576;2022-09-21T12:54:39;21.90;30.00
16827;DHT22;8530;49.540;8.576;2022-09-21T13:00:02;22.20;29.70
16827;DHT22;8530;49.540;8.576;2022-09-21T13:02:34;22.30;29.70
16827;DHT22;8530;49.540;8.576;2022-09-21T13:05:10;22.40;29.60
16827;DHT22;8530;49.540;8.576;2022-09-21T13:08:07;22.60;29.60
16827;DHT22;8530;49.540;8.576;2022-09-21T13:10:40;22.80;29.40
16827;DHT22;8530;49.540;8.576;2022-09-21T13:13:18;22.90;29.20
16827;DHT22;8530;49.540;8.576;2022-09-21T13:15:48;22.90;29.00
16827;DHT22;8530;49.540;8.576;2022-09-21T13:18:27;22.90;28.60
16827;DHT22;8530;49.540;8.576;2022-09-21T13:20:58;22.90;28.40
16827;DHT22;8530;49.540;8.576;2022-09-21T13:23:29;22.80;28.70
16827;DHT22;8530;49.540;8.576;2022-09-21T13:26:00;22.40;28.20
16827;DHT22;8530;49.540;8.576;2022-09-21T13:28:58;21.90;28.10
16827;DHT22;8530;49.540;8.576;2022-09-21T13:31:39;21.30;28.10
16827;DHT22;8530;49.540;8.576;2022-09-21T13:34:23;20.80;28.40
16827;DHT22;8530;49.540;8.576;2022-09-21T13:37:21;20.30;28.60
16827;DHT22;8530;49.540;8.576;2022-09-21T13:42:44;19.70;29.10
16827;DHT22;8530;49.540;8.576;2022-09-21T13:48:17;19.90;29.70
16827;DHT22;8530;49.540;8.576;2022-09-21T13:50:45;20.40;29.80
16827;DHT22;8530;49.540;8.576;2022-09-21T13:53:20;20.70;29.70
16827;DHT22;8530;49.540;8.576;2022-09-21T13:55:50;21.00;29.50
16827;DHT22;8530;49.540;8.576;2022-09-21T13:58:20;21.30;29.40
16827;DHT22;8530;49.540;8.576;2022-09-21T14:00:54;21.50;29.20
16827;DHT22;8530;49.540;8.576;2022-09-21T14:03:25;21.70;29.10
16827;DHT22;8530;49.540;8.576;2022-09-21T14:05:54;21.70;29.00
16827;DHT22;8530;49.540;8.576;2022-09-21T14:08:25;21.70;28.80
16827;DHT22;8530;49.540;8.576;2022-09-21T14:10:58;21.60;29.00
16827;DHT22;8530;49.540;8.576;2022-09-21T14:13:31;21.40;28.40
16827;DHT22;8530;49.540;8.576;2022-09-21T14:16:24;21.30;28.50
16827;DHT22;8530;49.540;8.576;2022-09-21T14:18:56;21.20;28.40
16827;DHT22;8530;49.540;8.576;2022-09-21T14:21:23;21.10;28.30
16827;DHT22;8530;49.540;8.576;2022-09-21T14:24:17;20.90;28.10
16827;DHT22;8530;49.540;8.576;2022-09-21T14:26:52;20.60;28.20
16827;DHT22;8530;49.540;8.576;2022-09-21T14:29:24;20.20;28.20
16827;DHT22;8530;49.540;8.576;2022-09-21T14:31:55;20.10;28.40
16827;DHT22;8530;49.540;8.576;2022-09-21T14:34:25;20.20;28.60
16827;DHT22;8530;49.540;8.576;2022-09-21T14:36:54;20.10;28.60
16827;DHT22;8530;49.540;8.576;2022-09-21T14:39:27;19.90;28.50
16827;DHT22;8530;49.540;8.576;2022-09-21T14:41:59;19.70;28.60
16827;DHT22;8530;49.540;8.576;2022-09-21T14:44:30;19.60;28.80
16827;DHT22;8530;49.540;8.576;2022-09-21T14:47:13;19.60;29.00
16827;DHT22;8530;49.540;8.576;2022-09-21T14:49:58;19.60;29.00
16827;DHT22;8530;49.540;8.576;2022-09-21T14:52:33;19.60;29.10
16827;DHT22;8530;49.540;8.576;2022-09-21T14:55:13;19.70;29.00
16827;DHT22;8530;49.540;8.576;2022-09-21T14:57:49;19.70;29.00
16827;DHT22;8530;49.540;8.576;2022-09-21T15:00:19;19.80;29.10
16827;DHT22;8530;49.540;8.576;2022-09-21T15:03:16;19.90;29.10
16827;DHT22;8530;49.540;8.576;2022-09-21T15:05:48;19.90;29.10
16827;DHT22;8530;49.540;8.576;2022-09-21T15:08:37;19.90;29.10
16827;DHT22;8530;49.540;8.576;2022-09-21T15:11:29;19.90;29.10
16827;DHT22;8530;49.540;8.576;2022-09-21T15:14:15;19.90;29.10
16827;DHT22;8530;49.540;8.576;2022-09-21T15:16:45;19.70;29.10
16827;DHT22;8530;49.540;8.576;2022-09-21T15:19:21;19.50;29.10
16827;DHT22;8530;49.540;8.576;2022-09-21T15:21:49;19.40;29.30
16827;DHT22;8530;49.540;8.576;2022-09-21T15:24:20;19.20;29.40
16827;DHT22;8530;49.540;8.576;2022-09-21T15:26:52;19.00;29.50
16827;DHT22;8530;49.540;8.576;2022-09-21T15:29:23;18.90;29.60
16827;DHT22;8530;49.540;8.576;2022-09-21T15:31:50;18.80;29.70
16827;DHT22;8530;49.540;8.576;2022-09-21T15:34:17;18.90;29.80
16827;DHT22;8530;49.540;8.576;2022-09-21T15:36:44;18.80;29.80
16827;DHT22;8530;49.540;8.576;2022-09-21T15:39:24;18.70;29.90
16827;DHT22;8530;49.540;8.576;2022-09-21T15:42:12;18.50;29.90
16827;DHT22;8530;49.540;8.576;2022-09-21T15:44:43;18.50;30.00
16827;DHT22;8530;49.540;8.576;2022-09-21T15:47:16;18.40;30.00
16827;DHT22;8530;49.540;8.576;2022-09-21T15:49:44;18.40;30.10
16827;DHT22;8530;49.540;8.576;2022-09-21T15:52:17;18.50;30.20
16827;DHT22;8530;49.540;8.576;2022-09-21T15:54:52;18.50;30.30
16827;DHT22;8530;49.540;8.576;2022-09-21T15:57:27;18.50;30.30
16827;DHT22;8530;49.540;8.576;2022-09-21T15:59:58;18.50;30.30
16827;DHT22;8530;49.540;8.576;2022-09-21T16:02:32;18.60;30.40
16827;DHT22;8530;49.540;8.576;2022-09-21T16:05:00;18.60;30.50
16827;DHT22;8530;49.540;8.576;2022-09-21T16:07:30;18.50;30.50
16827;DHT22;8530;49.540;8.576;2022-09-21T16:09:57;18.50;30.50
16827;DHT22;8530;49.540;8.576;2022-09-21T16:12:37;18.50;30.50
16827;DHT22;8530;49.540;8.576;2022-09-21T16:15:13;18.50;30.60
16827;DHT22;8530;49.540;8.576;2022-09-21T16:17:52;18.50;30.70
16827;DHT22;8530;49.540;8.576;2022-09-21T16:20:21;18.40;31.30
16827;DHT22;8530;49.540;8.576;2022-09-21T16:22:50;18.40;30.80
16827;DHT22;8530;49.540;8.576;2022-09-21T16:25:30;18.40;30.80
16827;DHT22;8530;49.540;8.576;2022-09-21T16:28:00;18.30;30.80
16827;DHT22;8530;49.540;8.576;2022-09-21T16:30:39;18.20;30.80
16827;DHT22;8530;49.540;8.576;2022-09-21T16:33:37;18.20;30.90
16827;DHT22;8530;49.540;8.576;2022-09-21T16:36:41;18.10;31.50